Time;durP1;ratioP1;P1;durP2;ratioP2;P2;SDS_P1;SDS_P2;PMS_P1;PMS_P2;Temp;Humidity;BMP_temperature;BMP_pressure;BME280_temperature;BME280_humidity;BME280_pressure;Samples;Min_cycle;Max_cycle;Signal;HPM_P1;HPM_P2
2021/08/05 00:02:06;;;;;;;6.37;2.70;;;;;;;18.00;78.60;100795.22;1732918;82;21490;-39
2021/08/05 00:04:32;;;;;;;3.70;3.02;;;;;;;17.98;78.74;100793.13;1715537;82;20968;-39
2021/08/05 00:06:59;;;;;;;3.72;2.62;;;;;;;17.97;78.76;100791.42;1710609;82;21015;-39
2021/08/05 00:09:25;;;;;;;4.37;2.45;;;;;;;17.95;78.25;100790.65;1718982;82;21249;-39
2021/08/05 00:11:53;;;;;;;3.05;2.45;;;;;;;17.97;78.36;100782.73;1741354;81;20980;-39
2021/08/05 00:14:20;;;;;;;4.15;2.65;;;;;;;17.97;78.21;100788.81;1718894;82;21020;-39
2021/08/05 00:16:49;;;;;;;3.02;2.45;;;;;;;17.98;78.13;100790.51;1720592;82;21051;-39
2021/08/05 00:19:17;;;;;;;2.58;2.37;;;;;;;18.02;77.74;100783.41;1713822;82;21043;-39
2021/08/05 00:21:45;;;;;;;4.22;2.70;;;;;;;18.05;77.66;100780.65;1740186;82;21518;-39
2021/08/05 00:24:12;;;;;;;2.15;2.05;;;;;;;18.09;77.44;100775.22;1735115;82;21703;-39
2021/08/05 00:26:39;;;;;;;5.80;2.35;;;;;;;18.14;77.33;100778.91;1719111;82;20944;-39
2021/08/05 00:29:07;;;;;;;3.22;2.50;;;;;;;18.19;77.12;100786.13;1726172;82;21144;-39
2021/08/05 00:31:34;;;;;;;3.67;2.40;;;;;;;18.24;77.15;100781.97;1733728;82;21031;-39
2021/08/05 00:34:01;;;;;;;4.67;2.70;;;;;;;18.29;77.03;100784.39;1719590;82;21067;-39
2021/08/05 00:36:29;;;;;;;4.65;2.40;;;;;;;18.34;76.78;100778.03;1713436;82;20991;-39
2021/08/05 00:38:57;;;;;;;3.17;2.20;;;;;;;18.41;76.57;100773.80;1733869;82;20964;-39
2021/08/05 00:41:24;;;;;;;3.00;2.70;;;;;;;18.48;76.44;100772.59;1741349;82;20933;-39
2021/08/05 00:43:50;;;;;;;2.45;2.35;;;;;;;18.54;76.47;100767.05;1703781;82;20991;-39
2021/08/05 00:46:17;;;;;;;4.00;2.52;;;;;;;18.58;76.50;100769.08;1733246;82;21148;-39
2021/08/05 00:48:44;;;;;;;3.42;2.35;;;;;;;18.63;76.36;100767.95;1733551;82;20944;-39
2021/08/05 00:51:10;;;;;;;5.30;2.55;;;;;;;18.69;76.21;100767.27;1719062;82;22221;-39
2021/08/05 00:53:42;;;;;;;3.70;2.25;;;;;;;18.72;76.23;100761.42;1692949;82;20980;-39
2021/08/05 00:56:07;;;;;;;5.00;2.50;;;;;;;18.76;76.34;100763.41;1724903;82;21043;-39
2021/08/05 00:58:34;;;;;;;4.97;2.47;;;;;;;18.79;76.72;100765.44;1728709;82;21051;-40
2021/08/05 01:01:11;;;;;;;3.35;2.50;;;;;;;18.81;76.92;100758.34;1734153;82;20964;-39
2021/08/05 01:03:42;;;;;;;6.05;2.55;;;;;;;18.84;76.89;100762.61;1725209;82;21509;-39
2021/08/05 01:06:20;;;;;;;9.65;2.85;;;;;;;18.85;76.62;100761.69;1723480;82;21513;-39
2021/08/05 01:08:52;;;;;;;5.55;3.20;;;;;;;18.87;76.29;100756.34;1738953;82;21067;-40
2021/08/05 01:11:23;;;;;;;3.77;3.10;;;;;;;18.89;75.87;100754.05;1719854;82;21090;-39
2021/08/05 01:13:55;;;;;;;8.00;2.72;;;;;;;18.90;75.69;100753.13;1721313;82;21537;-39
2021/08/05 01:16:25;;;;;;;5.67;3.20;;;;;;;18.91;75.13;100754.82;1727259;82;20917;-39
2021/08/05 01:18:57;;;;;;;8.10;2.75;;;;;;;18.92;74.63;100753.89;1719731;82;21003;-39
2021/08/05 01:21:46;;;;;;;7.92;3.42;;;;;;;18.92;74.26;100745.16;1740101;82;21019;-39
2021/08/05 01:24:13;;;;;;;7.05;3.72;;;;;;;18.91;74.06;100744.33;1742171;82;21115;-39
2021/08/05 01:26:55;;;;;;;11.25;3.95;;;;;;;18.90;73.76;100738.70;1744192;82;21015;-40
2021/08/05 01:29:21;;;;;;;8.43;3.25;;;;;;;18.90;73.59;100734.77;1710404;83;21019;-39
2021/08/05 01:31:49;;;;;;;7.22;3.70;;;;;;;18.88;73.48;100731.38;1733141;82;21007;-39
2021/08/05 01:34:16;;;;;;;3.72;3.33;;;;;;;18.87;73.37;100734.92;1708339;82;20924;-40
2021/08/05 01:36:44;;;;;;;3.77;3.45;;;;;;;18.87;73.49;100730.12;1719574;82;21672;-39
2021/08/05 01:39:11;;;;;;;3.42;3.17;;;;;;;18.84;73.76;100731.59;1719491;82;21022;-39
2021/08/05 01:41:38;;;;;;;3.65;3.35;;;;;;;18.79;73.98;100726.55;1740607;82;20967;-39
2021/08/05 01:44:10;;;;;;;4.95;3.52;;;;;;;18.77;74.05;100731.03;1720753;82;21019;-39
2021/08/05 01:46:37;;;;;;;7.33;3.20;;;;;;;18.75;74.31;100732.44;1739165;82;20932;-39
2021/08/05 01:49:04;;;;;;;6.92;3.35;;;;;;;18.75;74.44;100735.50;1722966;82;21053;-39
2021/08/05 01:51:30;;;;;;;3.47;3.17;;;;;;;18.72;74.77;100735.66;1722197;82;21026;-40
2021/08/05 01:53:57;;;;;;;9.85;4.03;;;;;;;18.67;75.00;100728.87;1720678;82;20995;-40
2021/08/05 01:56:24;;;;;;;4.22;3.50;;;;;;;18.67;75.50;100734.11;1726670;82;20963;-39
2021/08/05 01:58:52;;;;;;;5.87;3.50;;;;;;;18.65;75.80;100727.23;1731030;82;21234;-39
2021/08/05 02:01:19;;;;;;;5.10;3.92;;;;;;;18.62;76.17;100726.93;1722625;82;21144;-39
2021/08/05 02:04:06;;;;;;;5.03;3.87;;;;;;;18.57;76.34;100726.31;1731582;82;21007;-40
2021/08/05 02:06:37;;;;;;;4.30;3.67;;;;;;;18.55;76.43;100720.73;1740719;82;21026;-39
2021/08/05 02:09:11;;;;;;;4.70;3.60;;;;;;;18.49;76.57;100717.50;1747493;81;21044;-39
2021/08/05 02:11:41;;;;;;;9.95;4.08;;;;;;;18.46;76.63;100716.78;1722015;82;21014;-39
2021/08/05 02:14:08;;;;;;;8.98;3.80;;;;;;;18.40;76.91;100717.91;1744666;82;21108;-39
2021/08/05 02:16:34;;;;;;;6.95;4.08;;;;;;;18.36;77.18;100721.61;1705651;82;20991;-39
2021/08/05 02:19:00;;;;;;;7.05;4.15;;;;;;;18.33;77.26;100718.69;1722128;82;21003;-39
2021/08/05 02:21:29;;;;;;;4.80;3.83;;;;;;;18.31;77.51;100720.50;1745477;82;20979;-39
2021/08/05 02:23:57;;;;;;;20.88;5.00;;;;;;;18.30;77.59;100722.73;1725289;82;21010;-39
2021/08/05 02:26:25;;;;;;;45.92;7.90;;;;;;;18.29;77.52;100726.27;1719927;82;21800;-39
2021/08/05 02:28:51;;;;;;;38.17;7.35;;;;;;;18.29;77.59;100724.97;1719088;82;20975;-39
2021/08/05 02:31:18;;;;;;;35.63;6.20;;;;;;;18.32;77.56;100726.61;1719119;82;20928;-39
2021/08/05 02:33:45;;;;;;;38.33;6.80;;;;;;;18.34;77.47;100723.00;1726494;82;20962;-39
2021/08/05 02:36:12;;;;;;;63.15;8.35;;;;;;;18.37;77.25;100725.48;1705446;83;21569;-40
2021/08/05 02:38:39;;;;;;;89.52;9.33;;;;;;;18.44;77.07;100723.42;1735796;82;21322;-39
2021/08/05 02:41:05;;;;;;;96.28;10.40;;;;;;;18.48;76.66;100727.59;1699293;82;21027;-39
2021/08/05 02:43:32;;;;;;;78.65;10.23;;;;;;;18.52;76.24;100725.20;1717214;82;21530;-39
2021/08/05 02:45:59;;;;;;;56.45;7.72;;;;;;;18.56;76.01;100730.30;1747338;82;21557;-40
2021/08/05 02:48:26;;;;;;;50.85;7.80;;;;;;;18.60;75.65;100727.91;1744328;82;20991;-39
2021/08/05 02:50:56;;;;;;;24.65;5.22;;;;;;;18.66;75.19;100733.72;1720472;82;21767;-40
2021/08/05 02:53:23;;;;;;;8.10;4.58;;;;;;;18.74;73.95;100732.49;1740587;82;21059;-39
2021/08/05 02:55:49;;;;;;;21.75;5.60;;;;;;;18.85;72.81;100731.97;1736779;82;20960;-40
2021/08/05 02:58:16;;;;;;;25.85;5.67;;;;;;;18.94;71.64;100733.69;1724411;82;20972;-39
2021/08/05 03:00:43;;;;;;;32.53;6.70;;;;;;;19.06;70.37;100745.83;1720731;82;21034;-39
2021/08/05 03:03:11;;;;;;;44.88;6.25;;;;;;;19.19;69.60;100744.75;1718902;82;21054;-39
2021/08/05 03:05:40;;;;;;;36.48;7.50;;;;;;;19.28;69.32;100745.63;1718712;82;20969;-40
2021/08/05 03:08:07;;;;;;;56.33;7.15;;;;;;;19.36;68.64;100750.01;1732337;82;20976;-40
2021/08/05 03:10:34;;;;;;;55.60;7.62;;;;;;;19.45;68.43;100748.69;1719809;82;20940;-39
2021/08/05 03:13:02;;;;;;;33.25;6.78;;;;;;;19.52;68.64;100750.55;1716387;82;20999;-39
2021/08/05 03:15:29;;;;;;;39.80;5.87;;;;;;;19.56;68.79;100741.58;1721698;81;20994;-39
2021/08/05 03:17:55;;;;;;;21.35;5.42;;;;;;;19.60;69.11;100742.28;1726208;82;21612;-39
2021/08/05 03:20:22;;;;;;;6.28;4.17;;;;;;;19.61;68.94;100743.50;1722478;82;20963;-39
2021/08/05 03:22:49;;;;;;;12.78;4.10;;;;;;;19.64;68.67;100738.56;1746852;82;21020;-39
2021/08/05 03:25:15;;;;;;;6.60;4.22;;;;;;;19.65;68.98;100739.78;1744575;82;20959;-39
2021/08/05 03:27:42;;;;;;;11.57;4.45;;;;;;;19.65;68.91;100742.88;1743368;81;21115;-40
2021/08/05 03:30:09;;;;;;;13.50;4.42;;;;;;;19.65;69.06;100742.41;1743819;82;20984;-39
2021/08/05 03:32:37;;;;;;;9.45;4.08;;;;;;;19.68;69.04;100744.03;1736172;82;20964;-40
2021/08/05 03:35:04;;;;;;;7.28;4.25;;;;;;;19.69;68.85;100744.41;1746002;82;21066;-39
2021/08/05 03:37:31;;;;;;;7.58;4.30;;;;;;;19.72;68.79;100739.48;1732885;82;21027;-40
2021/08/05 03:39:57;;;;;;;6.70;4.40;;;;;;;19.78;68.80;100749.66;1720612;82;21142;-39
2021/08/05 03:42:24;;;;;;;6.03;4.35;;;;;;;19.84;68.95;100741.92;1746832;82;20912;-39
2021/08/05 03:44:51;;;;;;;9.08;4.20;;;;;;;19.90;68.99;100745.05;1732323;82;20979;-39
2021/08/05 03:47:18;;;;;;;5.83;3.72;;;;;;;19.98;68.97;100748.63;1701698;82;21015;-40
2021/08/05 03:49:46;;;;;;;4.97;4.22;;;;;;;20.03;68.67;100743.96;1740458;82;20984;-39
2021/08/05 03:52:13;;;;;;;9.33;3.95;;;;;;;20.13;68.27;100744.80;1732530;82;21065;-39
2021/08/05 03:54:39;;;;;;;4.95;3.95;;;;;;;20.20;68.17;100739.58;1747225;82;21019;-39
2021/08/05 03:57:05;;;;;;;4.55;3.90;;;;;;;20.26;67.62;100745.81;1739002;82;20991;-39
2021/08/05 03:59:34;;;;;;;5.55;4.00;;;;;;;20.32;67.69;100748.58;1725527;82;20979;-40
2021/08/05 04:02:00;;;;;;;8.08;4.08;;;;;;;20.36;67.45;100748.33;1735545;81;20964;-40
2021/08/05 04:04:27;;;;;;;5.97;4.08;;;;;;;20.44;67.69;100741.80;1721475;82;21119;-40
2021/08/05 04:06:54;;;;;;;9.70;4.53;;;;;;;20.45;67.45;100741.69;1719941;82;21047;-40
2021/08/05 04:09:21;;;;;;;6.45;3.70;;;;;;;20.49;67.14;100738.44;1733387;82;21615;-39
2021/08/05 04:11:48;;;;;;;6.03;4.00;;;;;;;20.52;67.09;100735.63;1734884;82;22742;-39
2021/08/05 04:14:15;;;;;;;7.20;3.92;;;;;;;20.54;67.37;100741.65;1747684;82;21008;-39
2021/08/05 04:16:42;;;;;;;7.90;3.52;;;;;;;20.53;67.27;100733.38;1746245;81;21083;-39
2021/08/05 04:19:08;;;;;;;5.45;3.47;;;;;;;20.52;67.65;100737.81;1709460;82;20956;-40
2021/08/05 04:21:34;;;;;;;6.05;3.77;;;;;;;20.52;67.56;100741.75;1733727;80;21522;-39
2021/08/05 04:24:02;;;;;;;8.18;4.33;;;;;;;20.52;67.82;100738.27;1726458;81;21489;-40
2021/08/05 04:26:29;;;;;;;3.72;3.40;;;;;;;20.51;68.17;100741.83;1743580;82;21526;-39
2021/08/05 04:28:58;;;;;;;7.35;4.15;;;;;;;20.52;68.43;100743.07;1745321;81;21064;-40
2021/08/05 04:31:24;;;;;;;8.40;4.67;;;;;;;20.53;68.91;100740.82;1733831;82;21003;-40
2021/08/05 04:33:50;;;;;;;11.33;4.05;;;;;;;20.56;68.86;100745.04;1735493;82;21038;-40
2021/08/05 04:36:17;;;;;;;5.03;4.00;;;;;;;20.62;68.78;100743.41;1719762;82;20979;-39
2021/08/05 04:38:43;;;;;;;10.08;4.22;;;;;;;20.67;69.29;100732.16;1711401;82;21074;-40
2021/08/05 04:41:10;;;;;;;4.45;4.05;;;;;;;20.73;69.47;100734.91;1747389;82;21134;-40
2021/08/05 04:43:37;;;;;;;5.90;3.90;;;;;;;20.79;69.00;100742.89;1730751;82;20970;-40
2021/08/05 04:46:04;;;;;;;4.53;3.55;;;;;;;20.83;68.83;100739.18;1719433;82;21521;-40
2021/08/05 04:48:32;;;;;;;7.67;3.50;;;;;;;20.88;68.69;100737.61;1719849;82;22011;-40
2021/08/05 04:50:59;;;;;;;5.30;3.77;;;;;;;20.95;68.62;100737.17;1720313;82;20951;-39
2021/08/05 04:53:27;;;;;;;5.22;2.98;;;;;;;21.02;68.48;100736.36;1725608;82;21925;-40
2021/08/05 04:55:53;;;;;;;3.70;3.37;;;;;;;21.11;68.92;100736.30;1719489;82;20971;-39
2021/08/05 04:58:20;;;;;;;5.42;3.45;;;;;;;21.19;68.72;100734.05;1703239;83;20988;-39
2021/08/05 05:00:47;;;;;;;6.55;3.87;;;;;;;21.30;68.49;100732.55;1733476;82;20943;-40
2021/08/05 05:03:13;;;;;;;5.12;3.80;;;;;;;21.39;68.18;100731.55;1728647;80;20939;-40
2021/08/05 05:05:40;;;;;;;4.35;3.47;;;;;;;21.48;67.25;100735.91;1718999;82;21189;-40
2021/08/05 05:08:22;;;;;;;6.28;3.30;;;;;;;21.53;67.13;100737.30;1716737;82;21066;-39
2021/08/05 05:10:54;;;;;;;4.75;3.10;;;;;;;21.59;66.83;100736.09;1741637;82;20972;-39
2021/08/05 05:13:20;;;;;;;4.90;3.62;;;;;;;21.67;66.69;100731.70;1736267;82;20968;-40
2021/08/05 05:15:48;;;;;;;5.08;3.50;;;;;;;21.73;66.84;100727.38;1726056;82;21031;-40
2021/08/05 05:18:17;;;;;;;7.35;3.65;;;;;;;21.81;67.18;100730.38;1730508;82;21138;-39
2021/08/05 05:20:47;;;;;;;7.87;4.08;;;;;;;21.92;67.05;100727.56;1718721;82;21014;-40
2021/08/05 05:23:13;;;;;;;13.22;3.85;;;;;;;22.03;66.87;100716.36;1727846;82;20943;-40
2021/08/05 05:25:40;;;;;;;5.15;3.80;;;;;;;22.22;67.04;100718.66;1738886;81;21010;-39
2021/08/05 05:28:07;;;;;;;12.13;4.85;;;;;;;22.41;66.72;100714.86;1698928;82;21009;-39
2021/08/05 05:30:35;;;;;;;21.42;13.20;;;;;;;22.65;66.57;100714.62;1713239;82;21793;-39
2021/08/05 05:33:02;;;;;;;29.02;16.40;;;;;;;22.89;66.29;100710.45;1730086;82;21652;-38
2021/08/05 05:35:28;;;;;;;29.50;18.15;;;;;;;23.04;65.03;100710.75;1738746;82;22282;-39
2021/08/05 05:37:56;;;;;;;83.92;49.13;;;;;;;23.17;64.89;100712.09;1736943;82;21007;-39
2021/08/05 05:40:23;;;;;;;87.97;48.78;;;;;;;23.33;65.36;100713.23;1717088;82;21070;-40
2021/08/05 05:42:49;;;;;;;64.95;37.33;;;;;;;23.53;65.42;100714.98;1719024;82;22150;-38
2021/08/05 05:45:17;;;;;;;46.53;25.85;;;;;;;23.80;64.97;100712.20;1726880;82;21490;-39
2021/08/05 05:47:43;;;;;;;22.65;12.50;;;;;;;24.10;64.03;100716.77;1740865;82;21034;-38
2021/08/05 05:50:11;;;;;;;18.70;5.33;;;;;;;24.29;61.64;100714.96;1726635;82;21202;-38
2021/08/05 05:52:38;;;;;;;11.40;3.50;;;;;;;24.43;58.79;100713.95;1708513;82;21532;-39
2021/08/05 05:55:06;;;;;;;19.52;3.98;;;;;;;24.54;55.52;100712.70;1723494;81;21814;-40
2021/08/05 05:57:33;;;;;;;11.93;3.35;;;;;;;24.59;56.64;100718.95;1744431;82;21044;-40
2021/08/05 05:59:59;;;;;;;31.45;4.95;;;;;;;24.65;56.77;100721.64;1713473;82;20979;-39
2021/08/05 06:02:26;;;;;;;57.45;5.67;;;;;;;24.60;55.58;100719.81;1740079;82;20977;-40
2021/08/05 06:04:52;;;;;;;32.20;5.05;;;;;;;24.53;55.59;100722.06;1727143;82;21007;-40
2021/08/05 06:07:20;;;;;;;41.20;4.67;;;;;;;24.49;55.92;100722.75;1732439;82;20944;-40
2021/08/05 06:09:47;;;;;;;42.45;5.42;;;;;;;24.49;55.44;100721.43;1713774;82;21066;-39
2021/08/05 06:12:14;;;;;;;56.33;5.45;;;;;;;24.46;56.22;100718.19;1727510;82;20953;-39
2021/08/05 06:14:41;;;;;;;42.93;6.30;;;;;;;24.49;56.61;100721.92;1694818;82;21003;-39
2021/08/05 06:17:08;;;;;;;65.15;5.67;;;;;;;24.45;54.69;100719.14;1718249;82;21031;-38
2021/08/05 06:19:34;;;;;;;50.28;5.85;;;;;;;24.38;56.41;100726.21;1726629;82;21143;-38
2021/08/05 06:22:02;;;;;;;56.88;6.28;;;;;;;24.43;56.28;100723.21;1725525;82;21003;-39
2021/08/05 06:24:28;;;;;;;26.23;4.55;;;;;;;24.47;56.33;100718.06;1687688;82;21550;-39
2021/08/05 06:26:55;;;;;;;30.88;5.08;;;;;;;24.50;57.10;100718.33;1694125;82;21647;-39
2021/08/05 06:29:22;;;;;;;20.72;4.58;;;;;;;24.57;56.76;100718.23;1722759;82;21024;-39
2021/08/05 06:31:49;;;;;;;7.62;3.85;;;;;;;24.63;57.53;100712.50;1727846;82;21043;-39
2021/08/05 06:34:15;;;;;;;15.08;3.90;;;;;;;24.68;57.58;100710.36;1698587;83;20951;-39
2021/08/05 06:36:43;;;;;;;11.60;3.67;;;;;;;24.78;58.28;100709.69;1718217;82;20940;-39
2021/08/05 06:39:09;;;;;;;8.33;3.50;;;;;;;24.86;58.07;100707.30;1717191;82;20975;-39
2021/08/05 06:41:37;;;;;;;7.87;3.40;;;;;;;24.93;58.22;100715.63;1720073;82;21031;-38
2021/08/05 06:44:04;;;;;;;14.07;4.25;;;;;;;25.02;58.00;100713.63;1696857;82;21218;-38
2021/08/05 06:46:31;;;;;;;11.20;3.90;;;;;;;25.17;57.31;100711.63;1725228;82;21035;-38
2021/08/05 06:48:57;;;;;;;14.68;3.47;;;;;;;25.25;57.22;100705.25;1714292;82;20940;-39
2021/08/05 06:51:23;;;;;;;6.40;3.30;;;;;;;25.39;57.29;100704.67;1719966;82;20995;-40
2021/08/05 06:53:52;;;;;;;3.47;3.15;;;;;;;25.48;56.84;100703.98;1738077;82;21513;-39
2021/08/05 06:56:18;;;;;;;9.98;3.22;;;;;;;25.58;56.89;100702.78;1741826;82;21143;-39
2021/08/05 06:58:44;;;;;;;23.50;4.17;;;;;;;25.72;56.46;100696.86;1735097;82;21004;-40
2021/08/05 07:01:11;;;;;;;24.82;4.20;;;;;;;25.86;55.51;100702.39;1721917;82;21564;-39
2021/08/05 07:03:37;;;;;;;12.53;4.40;;;;;;;25.95;54.76;100700.35;1691833;82;21743;-39
2021/08/05 07:06:06;;;;;;;17.90;5.33;;;;;;;26.01;55.20;100688.39;1726708;82;20956;-39
2021/08/05 07:08:35;;;;;;;8.15;3.70;;;;;;;26.17;55.08;100693.36;1715111;82;21128;-39
2021/08/05 07:11:02;;;;;;;6.28;2.92;;;;;;;26.30;55.40;100689.22;1715953;82;20916;-40
2021/08/05 07:13:28;;;;;;;11.15;3.40;;;;;;;26.35;53.73;100689.68;1733356;82;21015;-39
2021/08/05 07:15:55;;;;;;;15.23;4.40;;;;;;;26.37;53.94;100692.55;1713544;82;20936;-39
2021/08/05 07:18:21;;;;;;;31.12;5.25;;;;;;;26.37;52.63;100693.88;1733984;82;21024;-39
2021/08/05 07:20:48;;;;;;;12.58;4.15;;;;;;;26.41;52.69;100692.33;1719040;82;21040;-39
2021/08/05 07:23:14;;;;;;;29.20;5.50;;;;;;;26.51;53.15;100693.23;1727928;82;20995;-39
2021/08/05 07:25:41;;;;;;;13.35;4.22;;;;;;;26.59;53.33;100698.74;1694882;83;20999;-39
2021/08/05 07:28:08;;;;;;;11.15;3.50;;;;;;;26.67;52.92;100694.98;1720708;82;21019;-39
2021/08/05 07:30:34;;;;;;;14.50;3.37;;;;;;;26.82;52.63;100694.66;1725084;82;20975;-39
2021/08/05 07:33:01;;;;;;;17.50;3.40;;;;;;;27.02;52.84;100690.84;1690367;82;21186;-39
2021/08/05 07:35:27;;;;;;;11.03;3.42;;;;;;;27.16;50.53;100694.51;1709176;82;21649;-39
2021/08/05 07:37:54;;;;;;;38.78;4.75;;;;;;;27.32;50.96;100691.84;1716272;82;21047;-39
2021/08/05 07:40:20;;;;;;;44.23;5.53;;;;;;;27.40;49.95;100685.38;1721518;82;21036;-39
2021/08/05 07:42:48;;;;;;;53.08;5.53;;;;;;;27.41;48.34;100695.06;1724459;82;20964;-40
2021/08/05 07:45:15;;;;;;;52.00;5.20;;;;;;;27.41;48.70;100681.77;1733308;82;21120;-39
2021/08/05 07:47:42;;;;;;;25.08;4.28;;;;;;;27.42;48.89;100686.11;1699272;82;20973;-39
2021/08/05 07:50:10;;;;;;;17.23;4.30;;;;;;;27.50;48.97;100688.08;1691267;82;20975;-40
2021/08/05 07:52:37;;;;;;;22.07;4.03;;;;;;;27.58;50.11;100686.97;1669478;82;20936;-39
2021/08/05 07:55:06;;;;;;;21.82;4.28;;;;;;;27.60;48.87;100680.17;1732376;82;20991;-39
2021/08/05 07:57:33;;;;;;;37.65;5.83;;;;;;;27.59;47.89;100685.14;1721782;80;21041;-42
2021/08/05 08:00:00;;;;;;;43.23;5.53;;;;;;;27.50;46.94;100679.63;1731631;82;20975;-41
2021/08/05 08:02:28;;;;;;;28.12;5.53;;;;;;;27.45;45.98;100679.20;1734067;81;21012;-40
2021/08/05 08:04:54;;;;;;;31.93;5.80;;;;;;;27.44;47.43;100679.31;1745019;82;21639;-39
2021/08/05 08:07:21;;;;;;;13.78;4.70;;;;;;;27.49;47.73;100683.27;1737274;81;20996;-41
2021/08/05 08:09:49;;;;;;;48.23;6.12;;;;;;;27.61;48.49;100683.19;1732121;82;21150;-38
2021/08/05 08:12:16;;;;;;;41.35;6.92;;;;;;;27.61;47.06;100687.17;1732819;82;21054;-39
2021/08/05 08:14:44;;;;;;;47.67;7.00;;;;;;;27.50;45.50;100685.42;1739323;81;20905;-40
2021/08/05 08:17:12;;;;;;;94.47;10.23;;;;;;;27.42;46.62;100686.58;1731527;81;21030;-40
2021/08/05 08:19:39;;;;;;;75.57;8.70;;;;;;;27.32;47.04;100682.08;1719681;82;21011;-39
2021/08/05 08:22:06;;;;;;;99.72;9.95;;;;;;;27.21;47.20;100682.14;1719781;82;21087;-39
2021/08/05 08:24:33;;;;;;;70.25;8.88;;;;;;;27.13;48.03;100677.98;1739933;82;21016;-39
2021/08/05 08:26:59;;;;;;;87.67;9.55;;;;;;;27.18;49.36;100683.27;1735565;82;21043;-39
2021/08/05 08:29:26;;;;;;;63.80;8.25;;;;;;;27.14;48.61;100683.65;1720144;82;20940;-39
2021/08/05 08:31:52;;;;;;;61.08;8.55;;;;;;;26.97;48.02;100685.91;1723337;82;21059;-40
2021/08/05 08:34:18;;;;;;;50.43;7.55;;;;;;;26.84;48.31;100687.41;1748058;81;21189;-40
2021/08/05 08:36:45;;;;;;;62.85;9.23;;;;;;;26.71;48.78;100684.94;1726531;82;20983;-39
2021/08/05 08:39:12;;;;;;;67.55;9.15;;;;;;;26.62;48.92;100686.54;1717273;83;20955;-40
2021/08/05 08:41:40;;;;;;;80.80;10.30;;;;;;;26.63;49.33;100681.59;1736423;80;20983;-39
2021/08/05 08:44:08;;;;;;;62.53;9.98;;;;;;;26.68;49.97;100679.89;1725850;81;21071;-40
2021/08/05 08:46:35;;;;;;;77.27;10.15;;;;;;;26.68;50.29;100679.42;1712630;82;21026;-39
2021/08/05 08:49:03;;;;;;;53.65;9.05;;;;;;;26.66;51.70;100678.70;1750979;80;21027;-39
2021/08/05 08:51:33;;;;;;;41.35;8.18;;;;;;;26.62;51.71;100677.25;1745407;80;20991;-39
2021/08/05 08:54:03;;;;;;;40.98;7.10;;;;;;;26.57;51.65;100680.78;1701255;83;20990;-39
2021/08/05 08:56:33;;;;;;;27.35;6.97;;;;;;;26.48;51.71;100674.92;1698713;82;21679;-39
2021/08/05 08:59:00;;;;;;;10.70;5.90;;;;;;;26.36;52.15;100676.27;1734157;82;21790;-39
2021/08/05 09:01:27;;;;;;;9.35;5.37;;;;;;;26.30;52.35;100672.80;1723507;80;20995;-39
2021/08/05 09:03:53;;;;;;;10.32;5.20;;;;;;;26.24;53.80;100670.16;1729130;82;20979;-40
2021/08/05 09:06:20;;;;;;;11.53;5.05;;;;;;;26.16;53.42;100677.91;1685407;85;20917;-39
2021/08/05 09:08:48;;;;;;;9.23;5.17;;;;;;;26.09;53.25;100674.05;1681317;85;21607;-40
2021/08/05 09:11:15;;;;;;;16.67;5.55;;;;;;;25.99;53.47;100667.31;1686520;85;21224;-40
2021/08/05 09:13:43;;;;;;;12.95;4.90;;;;;;;25.93;53.98;100667.82;1696729;83;21646;-40
2021/08/05 09:18:36;;;;;;;8.68;5.75;;;;;;;25.79;54.13;100671.08;1792987;79;22720;-39
2021/08/05 09:21:14;;;;;;;10.40;5.62;;;;;;;25.69;55.54;100670.14;1780931;80;21019;-39
2021/08/05 09:23:50;;;;;;;;;;;;;;;25.60;56.21;100667.73;1780375;80;21535;-40
2021/08/05 09:26:47;;;;;;;8.88;5.37;;;;;;;25.54;57.73;100667.72;1759294;80;20127;-40
2021/08/05 09:29:18;;;;;;;10.55;6.22;;;;;;;25.46;58.63;100662.62;1755775;81;21015;-40
2021/08/05 09:31:55;;;;;;;14.00;6.33;;;;;;;25.38;59.83;100659.25;1756631;81;21006;-40
2021/08/05 09:34:37;;;;;;;15.75;7.05;;;;;;;25.33;60.61;100661.42;1756538;81;20935;-40
2021/08/05 09:37:09;;;;;;;16.57;7.08;;;;;;;25.32;61.43;100668.55;1756728;81;21142;-39
2021/08/05 09:39:39;;;;;;;10.68;6.42;;;;;;;25.31;62.13;100657.59;1744371;81;21483;-40
2021/08/05 09:42:13;;;;;;;15.55;6.50;;;;;;;25.31;62.05;100661.56;1726228;81;21048;-39
2021/08/05 09:44:44;;;;;;;19.73;6.47;;;;;;;25.30;62.19;100653.72;1753030;81;21072;-40
2021/08/05 09:47:19;;;;;;;10.72;6.53;;;;;;;25.31;62.49;100655.41;1756337;81;20980;-39
2021/08/05 09:49:51;;;;;;;12.95;5.90;;;;;;;25.36;63.41;100646.61;1756812;81;21796;-39
2021/08/05 09:52:33;;;;;;;10.58;6.10;;;;;;;25.36;63.41;100646.61;1756522;81;20981;-40
2021/08/05 09:55:08;;;;;;;13.58;5.75;;;;;;;25.40;63.01;100644.11;1748287;81;20980;-40
2021/08/05 09:57:44;;;;;;;13.80;6.40;;;;;;;25.45;63.09;100635.31;1752728;81;21022;-40
2021/08/05 10:00:14;;;;;;;12.47;6.00;;;;;;;25.46;62.49;100634.81;1757613;81;20954;-40
2021/08/05 10:02:46;;;;;;;13.75;5.60;;;;;;;25.46;62.25;100631.70;1755402;81;21131;-40
2021/08/05 10:05:19;;;;;;;43.42;6.70;;;;;;;25.45;62.88;100632.66;1720335;81;21577;-40
2021/08/05 10:07:55;;;;;;;22.10;6.80;;;;;;;25.45;63.12;100627.36;1746091;81;22114;-39
2021/08/05 10:10:26;;;;;;;12.25;5.62;;;;;;;25.48;64.04;100621.84;1720417;82;21018;-40
2021/08/05 10:12:57;;;;;;;9.08;5.95;;;;;;;25.53;64.38;100616.20;1756711;81;21072;-41
2021/08/05 10:15:24;;;;;;;13.28;5.22;;;;;;;25.58;64.81;100623.29;1745396;81;21207;-40
2021/08/05 10:17:59;;;;;;;5.95;5.28;;;;;;;25.63;64.44;100616.28;1715760;82;21060;-41
2021/08/05 10:20:27;;;;;;;10.63;5.67;;;;;;;25.67;63.38;100607.14;1733949;82;21011;-38
2021/08/05 10:22:56;;;;;;;11.75;6.00;;;;;;;25.72;62.53;100607.61;1733648;82;20953;-40
2021/08/05 10:25:25;;;;;;;8.23;5.62;;;;;;;25.79;62.55;100606.14;1714729;82;21509;-41
2021/08/05 10:27:53;;;;;;;17.90;5.92;;;;;;;25.88;62.58;100599.25;1737532;82;21151;-40
2021/08/05 10:30:19;;;;;;;9.23;5.40;;;;;;;26.00;62.16;100601.86;1742969;82;20980;-39
2021/08/05 10:32:47;;;;;;;16.27;5.08;;;;;;;26.13;61.12;100599.90;1742906;82;20995;-40
2021/08/05 10:35:14;;;;;;;8.85;4.85;;;;;;;26.27;61.27;100601.44;1742957;82;20928;-39
2021/08/05 10:37:41;;;;;;;10.18;5.20;;;;;;;26.38;60.55;100601.88;1745129;82;21083;-39
2021/08/05 10:40:10;;;;;;;9.10;5.42;;;;;;;26.51;59.36;100599.03;1744024;82;21061;-40
2021/08/05 10:42:36;;;;;;;9.50;4.92;;;;;;;26.60;59.91;100599.58;1710414;82;21560;-39
2021/08/05 10:45:04;;;;;;;10.23;5.00;;;;;;;26.72;59.98;100588.91;1747127;82;21027;-39
2021/08/05 10:47:32;;;;;;;11.90;5.40;;;;;;;26.86;58.99;100584.60;1746217;82;21006;-39
2021/08/05 10:50:03;;;;;;;8.33;4.67;;;;;;;27.11;59.29;100581.16;1746561;82;21051;-39
2021/08/05 10:52:40;;;;;;;7.83;4.83;;;;;;;27.36;59.27;100581.66;1737935;82;21083;-40
2021/08/05 10:55:26;;;;;;;11.60;4.40;;;;;;;27.63;57.25;100570.92;1733106;82;21609;-40
2021/08/05 10:58:18;;;;;;;16.40;5.40;;;;;;;27.97;55.52;100566.56;1714593;82;20989;-40
2021/08/05 11:00:54;;;;;;;17.35;4.58;;;;;;;28.30;55.29;100560.48;1735786;82;20949;-40
2021/08/05 11:03:44;;;;;;;7.42;4.10;;;;;;;28.65;54.04;100556.85;1733328;82;20933;-40
2021/08/05 11:06:26;;;;;;;12.28;3.80;;;;;;;28.93;52.56;100552.94;1745515;82;21779;-40
2021/08/05 11:08:53;;;;;;;12.23;3.98;;;;;;;29.22;52.58;100550.15;1739159;82;20951;-40
2021/08/05 11:11:26;;;;;;;8.58;4.08;;;;;;;29.51;50.68;100557.16;1748081;82;20947;-39
2021/08/05 11:14:06;;;;;;;8.55;3.37;;;;;;;29.71;48.50;100548.19;1743648;82;21493;-39
2021/08/05 11:17:00;;;;;;;7.83;3.40;;;;;;;29.82;48.54;100554.64;1742672;82;20974;-40
2021/08/05 11:19:32;;;;;;;12.80;3.35;;;;;;;30.00;48.70;100547.96;1742839;82;21144;-40
2021/08/05 11:22:36;;;;;;;9.10;3.58;;;;;;;30.32;47.47;100544.41;1722364;82;20932;-40
2021/08/05 11:25:03;;;;;;;12.68;3.35;;;;;;;30.69;45.10;100546.00;1726798;82;21046;-39
2021/08/05 11:27:30;;;;;;;14.80;3.65;;;;;;;31.11;45.28;100533.17;1711482;82;20995;-39
2021/08/05 11:29:56;;;;;;;16.07;3.90;;;;;;;31.30;42.95;100533.91;1721280;81;21019;-39
2021/08/05 11:32:28;;;;;;;12.73;3.67;;;;;;;31.40;43.13;100525.75;1712890;82;21191;-39